Time;durP1;ratioP1;P1;durP2;ratioP2;P2;SDS_P1;SDS_P2;PMS_P1;PMS_P2;Temp;Humidity;BMP_temperature;BMP_pressure;BME280_temperature;BME280_humidity;BME280_pressure;Samples;Min_cycle;Max_cycle;Signal;HPM_P1;HPM_P2
2022/04/06 00:01:03;;;;;;;5.80;5.40;;;10.00;99.90;;;;;;5115134;27;20686;-82
2022/04/06 00:03:30;;;;;;;6.03;5.57;;;10.40;99.90;;;;;;5103393;27;21030;-82
2022/04/06 00:05:56;;;;;;;7.00;5.70;;;10.40;99.90;;;;;;5111083;27;20630;-82
2022/04/06 00:08:23;;;;;;;5.87;5.47;;;10.00;99.90;;;;;;5112162;27;21051;-82
2022/04/06 00:10:50;;;;;;;6.33;5.83;;;9.90;99.90;;;;;;5113275;27;20643;-82
2022/04/06 00:13:18;;;;;;;6.07;5.50;;;10.30;99.90;;;;;;5111581;27;20610;-82
2022/04/06 00:15:45;;;;;;;5.83;5.33;;;10.40;99.90;;;;;;5110468;27;20646;-82
2022/04/06 00:18:11;;;;;;;7.83;5.33;;;10.30;99.90;;;;;;5110775;27;21173;-82
2022/04/06 00:20:38;;;;;;;6.97;6.27;;;10.30;99.90;;;;;;5111315;27;20646;-82
2022/04/06 00:23:05;;;;;;;5.70;5.30;;;9.90;99.90;;;;;;5109347;27;21165;-82
2022/04/06 00:25:33;;;;;;;5.50;5.10;;;10.20;99.90;;;;;;5101672;27;20629;-82
2022/04/06 00:28:00;;;;;;;5.77;5.27;;;10.20;99.90;;;;;;5112778;27;20688;-82
2022/04/06 00:30:28;;;;;;;5.90;5.40;;;10.40;99.90;;;;;;5107433;27;20687;-82
2022/04/06 00:32:55;;;;;;;7.53;6.83;;;10.30;99.90;;;;;;5116967;27;20630;-82
2022/04/06 00:35:31;;;;;;;6.70;6.10;;;10.30;99.90;;;;;;5109275;27;20633;-82
2022/04/06 00:37:59;;;;;;;6.60;5.83;;;10.30;99.90;;;;;;5110616;27;20754;-83
2022/04/06 00:40:26;;;;;;;5.93;5.40;;;10.30;99.90;;;;;;5110516;27;20650;-82
2022/04/06 00:42:54;;;;;;;5.80;5.30;;;10.30;99.90;;;;;;5102792;27;21165;-83
2022/04/06 00:45:21;;;;;;;6.23;5.80;;;10.10;99.90;;;;;;5111949;27;20622;-82
2022/04/06 00:47:50;;;;;;;6.30;5.70;;;10.30;99.90;;;;;;5106062;27;20630;-82
2022/04/06 00:50:17;;;;;;;6.00;5.50;;;10.30;99.90;;;;;;5111832;27;20944;-82
2022/04/06 00:52:44;;;;;;;5.83;5.43;;;10.30;99.90;;;;;;5109189;27;20725;-82
2022/04/06 00:55:12;;;;;;;5.80;5.37;;;10.30;99.90;;;;;;5108987;27;20627;-82
2022/04/06 00:57:40;;;;;;;5.73;5.33;;;10.30;99.90;;;;;;5108740;27;20694;-82
2022/04/06 01:00:10;;;;;;;5.70;5.27;;;10.30;99.90;;;;;;5112887;27;20654;-82
2022/04/06 01:02:37;;;;;;;6.47;5.87;;;10.30;99.90;;;;;;5109926;27;20635;-82
2022/04/06 01:05:06;;;;;;;6.07;5.67;;;10.30;99.90;;;;;;5111473;27;20626;-82
2022/04/06 01:07:35;;;;;;;6.10;5.60;;;10.30;99.90;;;;;;5111733;27;20623;-82
2022/04/06 01:10:02;;;;;;;6.10;5.67;;;10.20;99.90;;;;;;5111247;27;21216;-82
2022/04/06 01:12:30;;;;;;;6.50;6.00;;;10.20;99.90;;;;;;5108179;28;20627;-82
2022/04/06 01:14:56;;;;;;;6.50;5.90;;;9.90;99.90;;;;;;5112281;27;20639;-82
2022/04/06 01:17:23;;;;;;;7.27;6.57;;;10.30;99.90;;;;;;5108261;27;20655;-81
2022/04/06 01:19:51;;;;;;;5.70;5.30;;;10.20;99.90;;;;;;5117049;27;20647;-82
2022/04/06 01:22:20;;;;;;;5.40;5.00;;;10.30;99.90;;;;;;5112145;28;20630;-82
2022/04/06 01:24:48;;;;;;;5.10;4.70;;;10.20;99.90;;;;;;5109116;27;20626;-82
2022/04/06 01:27:16;;;;;;;4.93;4.63;;;10.20;99.90;;;;;;5102568;28;20627;-81
2022/04/06 01:29:43;;;;;;;5.70;5.20;;;10.30;99.90;;;;;;5102471;28;21016;-82
2022/04/06 01:32:12;;;;;;;6.83;6.23;;;10.20;99.90;;;;;;5117642;27;20606;-82
2022/04/06 01:34:39;;;;;;;5.67;5.17;;;10.30;99.90;;;;;;5115517;27;20623;-82
2022/04/06 01:37:07;;;;;;;5.10;4.70;;;9.90;99.90;;;;;;5116290;27;20662;-82
2022/04/06 01:39:37;;;;;;;5.33;4.93;;;10.10;99.90;;;;;;5112960;27;20639;-82
2022/04/06 01:42:05;;;;;;;6.30;4.97;;;9.90;99.90;;;;;;5114543;27;20690;-83
2022/04/06 01:44:32;;;;;;;5.43;4.93;;;10.30;99.90;;;;;;5115722;27;20638;-83
2022/04/06 01:46:59;;;;;;;5.97;5.37;;;10.40;99.90;;;;;;5112860;27;20681;-82
2022/04/06 01:52:14;;;;;;;5.43;5.03;;;10.40;99.90;;;;;;5113655;27;20623;-82
2022/04/06 01:54:43;;;;;;;5.33;4.83;;;10.10;99.90;;;;;;5112619;27;20615;-82
2022/04/06 01:57:10;;;;;;;5.47;5.00;;;10.40;99.90;;;;;;5110648;27;20666;-82
2022/04/06 01:59:37;;;;;;;5.00;4.60;;;10.10;99.90;;;;;;5115120;27;21015;-83
2022/04/06 02:02:05;;;;;;;4.20;3.80;;;10.20;99.90;;;;;;5116189;27;20737;-82
2022/04/06 02:04:32;;;;;;;5.17;4.77;;;10.50;99.90;;;;;;5107688;27;20631;-82
2022/04/06 02:06:59;;;;;;;5.00;4.60;;;10.40;99.90;;;;;;5119632;27;20645;-82
2022/04/06 02:09:28;;;;;;;4.73;4.40;;;10.50;99.90;;;;;;5113802;27;20627;-82
2022/04/06 02:11:57;;;;;;;4.50;4.20;;;10.40;99.90;;;;;;5106029;27;20615;-82
2022/04/06 02:14:23;;;;;;;6.97;4.70;;;10.50;99.90;;;;;;5117938;27;20979;-82
2022/04/06 02:16:50;;;;;;;4.50;4.20;;;10.50;99.90;;;;;;5110558;27;20615;-82
2022/04/06 02:19:17;;;;;;;5.13;4.73;;;10.30;99.90;;;;;;5118473;27;20714;-82
2022/04/06 02:21:44;;;;;;;4.47;4.17;;;10.30;99.90;;;;;;5114339;27;20630;-82
2022/04/06 02:24:10;;;;;;;5.63;5.10;;;10.60;99.90;;;;;;5115032;27;20641;-82
2022/04/06 02:26:37;;;;;;;6.37;5.67;;;10.60;99.90;;;;;;5113294;27;20676;-82
2022/04/06 02:29:06;;;;;;;5.90;5.17;;;10.30;99.90;;;;;;5108195;27;20610;-82
2022/04/06 02:31:34;;;;;;;5.93;5.53;;;10.60;99.90;;;;;;5115677;27;20979;-82
2022/04/06 02:34:00;;;;;;;5.70;5.20;;;10.60;99.90;;;;;;5115035;27;20639;-81
2022/04/06 02:36:27;;;;;;;7.50;5.00;;;10.60;99.90;;;;;;5110971;27;20631;-82
2022/04/06 02:38:54;;;;;;;6.10;5.23;;;10.20;99.90;;;;;;5114493;27;20666;-82
2022/04/06 02:41:21;;;;;;;6.90;6.20;;;10.40;99.90;;;;;;5113154;27;20663;-82
2022/04/06 02:43:48;;;;;;;6.50;6.00;;;10.20;99.90;;;;;;5112423;27;21077;-82
2022/04/06 02:46:16;;;;;;;5.80;5.30;;;10.80;99.90;;;;;;5111251;27;20626;-82
2022/04/06 02:48:43;;;;;;;6.30;5.80;;;10.60;99.90;;;;;;5113609;27;20628;-82
2022/04/06 02:51:09;;;;;;;6.30;5.80;;;10.60;99.90;;;;;;5110496;27;20680;-82
2022/04/06 02:53:36;;;;;;;6.37;5.77;;;10.60;99.90;;;;;;5116393;27;20713;-82
2022/04/06 02:56:03;;;;;;;5.90;5.40;;;10.30;99.90;;;;;;5109335;27;20706;-82
2022/04/06 02:58:30;;;;;;;6.60;6.10;;;10.60;99.90;;;;;;5112101;27;20663;-82
2022/04/06 03:00:58;;;;;;;7.00;6.30;;;10.60;99.90;;;;;;5117224;27;20662;-82
2022/04/06 03:03:26;;;;;;;7.37;6.67;;;10.30;99.90;;;;;;5110793;27;20695;-82
2022/04/06 03:05:53;;;;;;;10.40;9.30;;;10.60;99.90;;;;;;5113411;27;20675;-82
2022/04/06 03:08:21;;;;;;;10.80;9.70;;;10.60;99.90;;;;;;5114356;27;20626;-82
2022/04/06 03:10:48;;;;;;;9.60;8.63;;;10.60;99.90;;;;;;5118614;27;20651;-82
2022/04/06 03:13:14;;;;;;;7.13;6.43;;;10.50;99.90;;;;;;5111909;27;20630;-82
2022/04/06 03:15:42;;;;;;;8.00;7.20;;;10.30;99.90;;;;;;5114322;27;20622;-82
2022/04/06 03:18:09;;;;;;;6.87;6.27;;;10.60;99.90;;;;;;5114958;27;21360;-81
2022/04/06 03:20:37;;;;;;;7.13;6.50;;;10.60;99.90;;;;;;5117534;27;20662;-82
2022/04/06 03:23:04;;;;;;;6.70;6.17;;;10.80;99.90;;;;;;5111798;27;21173;-82
2022/04/06 03:25:31;;;;;;;7.80;7.10;;;10.60;99.90;;;;;;5112863;27;20626;-82
2022/04/06 03:27:57;;;;;;;8.93;8.20;;;10.50;99.90;;;;;;5109681;27;20723;-82
2022/04/06 03:30:24;;;;;;;7.53;6.70;;;10.60;99.90;;;;;;5109690;27;20651;-82
2022/04/06 03:32:51;;;;;;;7.93;7.23;;;10.60;99.90;;;;;;5108492;27;20735;-83
2022/04/06 03:35:18;;;;;;;7.10;6.50;;;10.60;99.90;;;;;;5114735;27;20635;-82
2022/04/06 03:37:46;;;;;;;6.60;6.10;;;10.60;99.90;;;;;;5100037;27;20662;-83
2022/04/06 03:40:13;;;;;;;6.43;5.93;;;10.30;99.90;;;;;;5114690;27;20650;-82
2022/04/06 03:42:40;;;;;;;7.43;6.83;;;10.20;99.90;;;;;;5111234;27;21194;-82
2022/04/06 03:45:09;;;;;;;7.17;6.57;;;10.60;99.90;;;;;;5109609;27;20655;-83
2022/04/06 03:47:37;;;;;;;6.50;5.90;;;10.60;99.90;;;;;;5112744;27;21038;-83
2022/04/06 03:50:05;;;;;;;6.37;5.87;;;10.60;99.90;;;;;;5108422;27;20663;-83
2022/04/06 03:52:32;;;;;;;6.00;5.50;;;10.60;99.90;;;;;;5100514;27;20619;-82
2022/04/06 03:55:00;;;;;;;6.80;6.30;;;10.40;99.90;;;;;;5114207;27;20619;-83
2022/04/06 03:57:27;;;;;;;6.40;5.90;;;10.70;99.90;;;;;;5108197;27;20714;-83
2022/04/06 03:59:54;;;;;;;6.53;6.00;;;10.60;99.90;;;;;;5115267;27;20654;-82
2022/04/06 04:02:20;;;;;;;6.43;5.93;;;10.20;99.90;;;;;;5112287;27;20647;-82
2022/04/06 04:04:47;;;;;;;6.23;5.63;;;10.60;99.90;;;;;;5110867;27;21062;-83
2022/04/06 04:07:20;;;;;;;7.00;6.13;;;10.30;99.90;;;;;;5113714;27;20635;-83
2022/04/06 04:09:49;;;;;;;7.07;6.37;;;10.60;99.90;;;;;;5101496;27;20757;-82
2022/04/06 04:12:17;;;;;;;6.73;6.13;;;10.30;99.90;;;;;;5110268;27;21197;-82
2022/04/06 04:14:45;;;;;;;6.33;5.83;;;10.60;99.90;;;;;;5114207;27;20610;-82
2022/04/06 04:17:12;;;;;;;7.67;6.93;;;10.30;99.90;;;;;;5109785;27;20961;-83
2022/04/06 04:19:39;;;;;;;7.60;6.77;;;10.60;99.90;;;;;;5107147;27;21354;-83
2022/04/06 04:22:06;;;;;;;7.10;6.40;;;10.70;99.90;;;;;;5112419;27;20917;-83
2022/04/06 04:24:34;;;;;;;9.00;7.23;;;10.60;99.90;;;;;;5111630;27;20615;-83
2022/04/06 04:27:00;;;;;;;7.60;7.00;;;10.80;99.90;;;;;;5104287;27;20620;-83
2022/04/06 04:29:29;;;;;;;6.60;5.20;;;10.60;99.90;;;;;;5102315;27;21161;-83
2022/04/06 04:31:55;;;;;;;7.07;6.50;;;10.50;99.90;;;;;;5108941;27;20615;-83
2022/04/06 04:34:22;;;;;;;7.17;6.47;;;10.60;99.90;;;;;;5107779;27;20619;-83
2022/04/06 04:36:49;;;;;;;6.83;6.23;;;10.60;99.90;;;;;;5105912;27;20642;-83
2022/04/06 04:39:15;;;;;;;6.60;6.10;;;10.60;99.90;;;;;;5105167;27;20660;-82
2022/04/06 04:41:43;;;;;;;6.80;6.20;;;10.60;99.90;;;;;;5110843;27;20615;-82
2022/04/06 04:44:10;;;;;;;6.73;6.13;;;10.60;99.90;;;;;;5111010;27;20626;-82
2022/04/06 04:46:41;;;;;;;7.00;6.40;;;10.60;99.90;;;;;;5107451;27;20646;-83
2022/04/06 04:49:08;;;;;;;7.33;6.63;;;10.60;99.90;;;;;;5111053;27;20615;-83
2022/04/06 04:51:36;;;;;;;7.60;6.90;;;10.70;99.90;;;;;;5108056;27;20631;-83
2022/04/06 04:54:04;;;;;;;7.70;6.97;;;10.20;99.90;;;;;;5106548;27;20932;-83
2022/04/06 04:56:32;;;;;;;7.53;6.90;;;10.60;99.90;;;;;;5109692;27;20658;-83
2022/04/06 04:58:59;;;;;;;7.60;6.90;;;10.60;99.90;;;;;;5108836;27;20671;-82
2022/04/06 05:01:26;;;;;;;7.47;6.83;;;10.60;99.90;;;;;;5114288;27;20745;-82
2022/04/06 05:03:54;;;;;;;7.17;6.53;;;10.60;99.90;;;;;;5104379;27;20650;-83
2022/04/06 05:06:22;;;;;;;6.30;5.80;;;10.40;99.90;;;;;;5107930;27;20650;-82
2022/04/06 05:08:49;;;;;;;6.20;5.70;;;10.30;99.90;;;;;;5107600;27;20625;-83
2022/04/06 05:11:16;;;;;;;8.00;7.30;;;10.50;99.90;;;;;;5109288;28;20611;-83
2022/04/06 05:13:43;;;;;;;6.53;6.00;;;10.50;99.90;;;;;;5103548;27;20617;-83
2022/04/06 05:16:10;;;;;;;7.30;6.70;;;10.50;99.90;;;;;;5108275;27;20665;-82
2022/04/06 05:18:36;;;;;;;7.57;7.00;;;10.60;99.90;;;;;;5109598;27;20684;-83
2022/04/06 05:21:05;;;;;;;8.07;7.27;;;10.60;99.90;;;;;;5107892;28;20634;-83
2022/04/06 05:23:32;;;;;;;7.87;7.10;;;10.30;99.90;;;;;;5107523;28;20994;-82
2022/04/06 05:26:02;;;;;;;7.80;7.20;;;10.60;99.90;;;;;;5107244;27;20630;-82
2022/04/06 05:28:31;;;;;;;7.87;7.27;;;10.30;99.90;;;;;;5105864;28;20623;-82
2022/04/06 05:30:58;;;;;;;7.67;6.97;;;10.60;99.90;;;;;;5109053;28;20948;-82
2022/04/06 05:33:25;;;;;;;7.40;6.80;;;10.60;99.90;;;;;;5104847;28;20597;-82
2022/04/06 05:35:52;;;;;;;7.30;6.57;;;10.30;99.90;;;;;;5109163;28;20670;-82
2022/04/06 05:38:20;;;;;;;7.07;6.50;;;10.70;99.90;;;;;;5104734;28;20690;-82
2022/04/06 05:40:47;;;;;;;7.20;6.70;;;10.70;99.90;;;;;;5106470;28;20615;-82
2022/04/06 05:43:14;;;;;;;6.87;6.33;;;10.70;99.90;;;;;;5102813;28;20665;-82
2022/04/06 05:45:41;;;;;;;6.80;6.10;;;10.70;99.90;;;;;;5109810;27;20683;-83
2022/04/06 05:48:11;;;;;;;13.73;7.30;;;10.70;99.90;;;;;;5107883;28;21216;-82
2022/04/06 05:50:39;;;;;;;6.67;5.77;;;10.70;99.90;;;;;;5110792;28;20599;-82
2022/04/06 05:53:06;;;;;;;6.77;6.07;;;10.70;99.90;;;;;;5104403;28;20627;-83
2022/04/06 05:55:34;;;;;;;6.90;6.30;;;10.70;99.90;;;;;;5101527;28;20690;-82
2022/04/06 05:58:01;;;;;;;7.03;6.20;;;11.00;99.90;;;;;;5107712;27;21204;-82
2022/04/06 06:00:28;;;;;;;6.27;5.67;;;10.40;99.90;;;;;;5103955;27;20662;-82
2022/04/06 06:02:54;;;;;;;6.83;6.33;;;10.40;99.90;;;;;;5103301;28;20635;-83
2022/04/06 06:05:21;;;;;;;6.17;5.70;;;10.80;99.90;;;;;;5098812;27;20702;-82
2022/04/06 06:07:48;;;;;;;6.00;5.50;;;10.80;99.90;;;;;;5109179;28;20615;-82
2022/04/06 06:10:15;;;;;;;8.80;6.07;;;10.80;99.90;;;;;;5108482;27;20634;-82
2022/04/06 06:12:46;;;;;;;7.03;6.50;;;10.60;99.90;;;;;;5107396;28;20621;-82
2022/04/06 06:15:13;;;;;;;6.37;5.70;;;10.80;99.90;;;;;;5102204;27;21210;-83
2022/04/06 06:17:41;;;;;;;8.53;6.43;;;10.90;99.90;;;;;;5106864;27;20623;-82
2022/04/06 06:20:08;;;;;;;7.13;4.97;;;10.90;99.90;;;;;;5107078;27;20665;-82
2022/04/06 06:22:35;;;;;;;8.57;6.80;;;11.00;99.90;;;;;;5112117;27;20619;-83
2022/04/06 06:25:02;;;;;;;7.70;6.70;;;10.70;99.90;;;;;;5107197;27;21236;-82
2022/04/06 06:27:28;;;;;;;6.00;5.50;;;10.60;99.90;;;;;;5114100;27;20634;-82
2022/04/06 06:29:56;;;;;;;6.47;5.87;;;11.00;99.90;;;;;;5101845;27;22047;-83
2022/04/06 06:32:23;;;;;;;6.37;5.77;;;11.10;99.90;;;;;;5101032;27;20861;-83
2022/04/06 06:34:50;;;;;;;5.90;5.50;;;11.10;99.90;;;;;;5107450;27;20696;-83
2022/04/06 06:37:17;;;;;;;6.60;5.20;;;11.20;99.90;;;;;;5112484;27;21144;-83
2022/04/06 06:39:43;;;;;;;6.90;5.30;;;11.20;99.90;;;;;;5108401;27;20658;-82
2022/04/06 06:42:10;;;;;;;5.57;5.07;;;11.30;99.90;;;;;;5112158;27;20916;-83
2022/04/06 06:44:37;;;;;;;9.90;7.90;;;11.00;99.90;;;;;;5107898;27;20619;-83
2022/04/06 06:47:05;;;;;;;6.23;5.80;;;11.30;99.90;;;;;;5112793;27;20629;-82
2022/04/06 06:49:32;;;;;;;5.47;4.97;;;11.40;99.90;;;;;;5107465;27;20792;-83
2022/04/06 06:51:59;;;;;;;6.03;5.30;;;11.40;99.90;;;;;;5110385;27;20615;-82
2022/04/06 06:54:26;;;;;;;7.33;5.40;;;11.40;99.90;;;;;;5107178;27;20615;-83
2022/04/06 06:56:52;;;;;;;5.70;4.97;;;11.30;99.90;;;;;;5109467;27;20994;-83
2022/04/06 06:59:19;;;;;;;4.90;4.40;;;11.60;99.90;;;;;;5108779;27;20654;-83
2022/04/06 07:01:46;;;;;;;5.57;5.17;;;11.50;99.90;;;;;;5113816;27;21177;-82
2022/04/06 07:04:14;;;;;;;4.50;4.20;;;11.20;99.90;;;;;;5107947;27;20631;-82
2022/04/06 07:06:41;;;;;;;4.90;4.40;;;11.50;99.90;;;;;;5111562;27;20634;-82
2022/04/06 07:09:08;;;;;;;5.33;4.27;;;11.60;99.90;;;;;;5110685;27;20618;-82
2022/04/06 07:11:34;;;;;;;4.10;3.80;;;11.60;99.90;;;;;;5108135;27;20623;-83
2022/04/06 07:14:01;;;;;;;4.57;3.90;;;11.70;99.90;;;;;;5107576;27;20620;-83
2022/04/06 07:16:29;;;;;;;4.87;4.47;;;11.70;99.90;;;;;;5111240;27;20646;-82
2022/04/06 07:18:55;;;;;;;3.57;3.33;;;11.70;99.90;;;;;;5114058;27;20647;-83
2022/04/06 07:21:23;;;;;;;3.40;3.20;;;11.70;99.90;;;;;;5112133;27;20633;-83
2022/04/06 07:23:50;;;;;;;3.70;2.60;;;11.80;99.90;;;;;;5111631;27;20630;-83
2022/04/06 07:26:17;;;;;;;2.97;2.70;;;11.80;99.90;;;;;;5113954;27;20654;-83
2022/04/06 07:28:45;;;;;;;3.30;2.83;;;11.80;99.90;;;;;;5105083;27;20834;-83
2022/04/06 07:31:12;;;;;;;2.37;2.17;;;11.90;99.90;;;;;;5099386;27;20635;-83
2022/04/06 07:33:40;;;;;;;3.83;2.53;;;11.90;99.90;;;;;;5107939;27;20637;-83
2022/04/06 07:36:07;;;;;;;2.57;2.10;;;11.90;99.90;;;;;;5109064;27;21052;-83
2022/04/06 07:38:35;;;;;;;2.73;2.37;;;11.90;99.90;;;;;;5107493;27;20653;-83
2022/04/06 07:41:01;;;;;;;3.50;1.90;;;12.00;99.90;;;;;;5106419;27;21196;-83
2022/04/06 07:43:28;;;;;;;2.50;2.30;;;12.10;99.90;;;;;;5098983;27;20963;-83
2022/04/06 07:45:55;;;;;;;3.07;1.90;;;12.20;99.90;;;;;;5099077;28;20663;-83
2022/04/06 07:48:22;;;;;;;2.90;2.70;;;12.20;99.90;;;;;;5105751;27;20661;-83
2022/04/06 07:50:49;;;;;;;2.70;2.43;;;12.30;99.90;;;;;;5109059;27;20629;-83
2022/04/06 07:53:17;;;;;;;2.33;2.13;;;12.30;99.90;;;;;;5100644;27;20976;-83
2022/04/06 07:55:46;;;;;;;2.50;2.30;;;12.50;99.90;;;;;;5107369;27;20618;-83
2022/04/06 07:58:13;;;;;;;2.47;2.27;;;12.50;99.90;;;;;;5109393;27;20654;-83
2022/04/06 08:00:40;;;;;;;2.67;2.47;;;12.50;99.90;;;;;;5108370;27;20659;-83
2022/04/06 08:03:07;;;;;;;2.20;2.00;;;12.60;99.90;;;;;;5111784;27;21198;-83
2022/04/06 08:05:34;;;;;;;3.30;2.93;;;12.60;99.90;;;;;;5104397;27;21234;-83
2022/04/06 08:08:00;;;;;;;1.90;1.80;;;12.60;99.90;;;;;;5109290;27;20967;-83
2022/04/06 08:10:30;;;;;;;2.50;1.77;;;12.60;99.90;;;;;;5108340;27;20631;-83
2022/04/06 08:12:58;;;;;;;1.60;1.50;;;12.60;99.90;;;;;;5107665;27;21174;-83
2022/04/06 08:15:25;;;;;;;2.40;1.67;;;12.70;99.90;;;;;;5104465;27;21183;-83
2022/04/06 08:17:52;;;;;;;2.13;2.03;;;12.70;99.90;;;;;;5111864;27;20613;-83
2022/04/06 08:20:19;;;;;;;2.17;1.97;;;12.80;99.90;;;;;;5110469;27;20651;-83
2022/04/06 08:22:47;;;;;;;1.70;1.60;;;12.80;99.90;;;;;;5108050;27;20611;-83
2022/04/06 08:25:15;;;;;;;4.53;2.23;;;12.90;99.90;;;;;;5101144;27;20702;-83
2022/04/06 08:27:42;;;;;;;2.60;2.10;;;12.90;99.90;;;;;;5112700;27;21150;-83
2022/04/06 08:30:12;;;;;;;1.50;1.40;;;12.90;99.90;;;;;;5100367;28;20651;-83
2022/04/06 08:32:40;;;;;;;1.93;1.83;;;12.90;99.90;;;;;;5110534;27;20623;-82
2022/04/06 08:35:08;;;;;;;5.03;1.83;;;12.90;99.90;;;;;;5102622;27;21103;-84
2022/04/06 08:37:35;;;;;;;2.40;1.63;;;12.90;99.90;;;;;;5108173;27;20740;-82
2022/04/06 08:40:02;;;;;;;1.97;1.70;;;12.90;99.90;;;;;;5105228;27;20694;-82
2022/04/06 08:42:32;;;;;;;1.80;1.70;;;12.90;99.90;;;;;;5107192;27;21202;-83
2022/04/06 08:45:00;;;;;;;3.03;2.50;;;12.90;99.90;;;;;;5109954;27;20611;-83
2022/04/06 08:47:29;;;;;;;3.27;1.93;;;13.00;99.90;;;;;;5103926;27;20616;-82
2022/04/06 08:49:56;;;;;;;2.23;1.90;;;12.90;99.90;;;;;;5104098;27;20647;-83
2022/04/06 08:52:24;;;;;;;3.93;2.30;;;13.00;99.90;;;;;;5106339;27;20636;-83
2022/04/06 08:54:51;;;;;;;1.60;1.50;;;13.10;99.90;;;;;;5107843;27;20610;-83
2022/04/06 08:57:18;;;;;;;2.57;2.37;;;13.20;99.90;;;;;;5110940;27;20620;-83
2022/04/06 08:59:47;;;;;;;1.90;1.80;;;13.20;99.90;;;;;;5107870;27;20679;-83
2022/04/06 09:02:18;;;;;;;1.80;1.70;;;13.30;99.90;;;;;;5099917;27;20907;-83
2022/04/06 09:04:51;;;;;;;2.57;2.37;;;13.30;99.90;;;;;;5107578;27;20619;-82
2022/04/06 09:07:20;;;;;;;1.50;1.30;;;13.40;99.90;;;;;;5106998;27;20669;-82
2022/04/06 09:09:50;;;;;;;0.90;0.90;;;13.50;99.90;;;;;;5110024;27;20682;-82
2022/04/06 09:12:19;;;;;;;0.97;0.97;;;13.50;99.90;;;;;;5104372;27;20607;-83
2022/04/06 09:14:46;;;;;;;2.53;2.33;;;13.50;99.90;;;;;;5105785;28;20607;-82
2022/04/06 09:17:13;;;;;;;1.30;1.20;;;13.50;99.90;;;;;;5106085;28;20602;-82
2022/04/06 09:19:49;;;;;;;1.53;1.43;;;13.60;99.90;;;;;;5110172;27;20686;-83
2022/04/06 09:22:16;;;;;;;2.63;1.20;;;13.60;99.90;;;;;;5109117;27;20723;-83
2022/04/06 09:24:43;;;;;;;2.17;1.97;;;13.80;99.90;;;;;;5102692;28;20654;-83
2022/04/06 09:27:10;;;;;;;1.10;0.90;;;14.00;99.90;;;;;;5105027;28;20623;-82
2022/04/06 09:29:37;;;;;;;1.10;1.00;;;14.10;99.90;;;;;;5101715;28;20671;-82
2022/04/06 09:32:08;;;;;;;2.20;1.30;;;14.20;99.90;;;;;;5106151;28;20969;-82
2022/04/06 09:34:35;;;;;;;1.30;1.20;;;14.20;99.90;;;;;;5104618;28;20610;-82
2022/04/06 09:37:24;;;;;;;1.27;1.20;;;14.20;99.90;;;;;;5101774;28;20615;-83
2022/04/06 09:39:51;;;;;;;1.27;1.00;;;14.20;99.90;;;;;;5107741;28;21125;-83
2022/04/06 09:42:22;;;;;;;1.73;1.00;;;14.30;99.90;;;;;;5109637;27;20640;-83
2022/04/06 09:47:42;;;;;;;1.10;1.00;;;14.40;99.90;;;;;;5109147;28;20554;-83
2022/04/06 09:50:19;;;;;;;0.70;0.70;;;14.60;99.90;;;;;;5107111;27;20839;-83
2022/04/06 09:52:51;;;;;;;1.00;0.90;;;14.70;99.90;;;;;;5105991;27;21236;-83
2022/04/06 09:55:19;;;;;;;0.60;0.60;;;14.80;99.60;;;;;;5108415;27;20639;-83
2022/04/06 09:57:50;;;;;;;1.30;1.20;;;15.00;99.20;;;;;;5108790;27;20623;-83
2022/04/06 10:00:18;;;;;;;0.70;0.70;;;15.00;99.50;;;;;;5110299;27;21224;-83
2022/04/06 10:02:48;;;;;;;1.33;1.10;;;15.10;99.30;;;;;;5109401;27;20631;-83
2022/04/06 10:05:18;;;;;;;0.77;0.77;;;15.20;99.00;;;;;;5109542;27;20682;-82
2022/04/06 10:07:45;;;;;;;1.60;0.70;;;15.20;98.90;;;;;;5109824;27;20602;-83
2022/04/06 10:10:13;;;;;;;1.87;1.00;;;15.30;98.70;;;;;;5108795;27;20717;-83
2022/04/06 10:12:41;;;;;;;0.70;0.70;;;15.30;98.40;;;;;;5110098;27;20625;-83
2022/04/06 10:15:08;;;;;;;0.80;0.80;;;15.40;98.20;;;;;;5104958;27;21212;-83
2022/04/06 10:17:36;;;;;;;1.30;1.20;;;15.50;98.40;;;;;;5106399;27;21209;-82
2022/04/06 10:20:21;;;;;;;0.80;0.80;;;15.50;97.80;;;;;;5109338;27;20679;-82
2022/04/06 10:23:10;;;;;;;1.27;0.80;;;15.40;97.60;;;;;;5105340;27;20659;-83
2022/04/06 10:25:49;;;;;;;1.37;0.70;;;15.30;97.80;;;;;;5106545;27;20619;-83
2022/04/06 10:28:17;;;;;;;1.00;0.83;;;15.30;97.80;;;;;;5105891;27;20643;-83
2022/04/06 10:31:14;;;;;;;0.80;0.80;;;15.30;97.90;;;;;;5113296;27;20638;-83
2022/04/06 10:33:41;;;;;;;2.33;0.93;;;15.40;97.30;;;;;;5105270;27;21206;-83
2022/04/06 10:36:17;;;;;;;0.70;0.70;;;15.40;96.70;;;;;;5113779;27;20704;-83
2022/04/06 10:39:12;;;;;;;0.87;0.77;;;15.60;96.90;;;;;;5106773;27;21255;-83
2022/04/06 10:42:00;;;;;;;1.03;0.73;;;15.60;96.80;;;;;;5107435;27;20953;-82
2022/04/06 10:44:41;;;;;;;1.03;0.60;;;15.70;96.50;;;;;;5104553;27;20657;-82
2022/04/06 10:47:09;;;;;;;0.57;0.50;;;15.70;96.50;;;;;;5111085;27;20671;-83
2022/04/06 10:49:36;;;;;;;1.47;0.97;;;15.80;96.50;;;;;;5108682;27;21086;-82
2022/04/06 10:52:19;;;;;;;2.03;1.13;;;15.90;96.40;;;;;;5110920;27;20622;-83
2022/04/06 10:54:46;;;;;;;4.40;0.83;;;16.00;96.00;;;;;;5105349;27;20623;-83
2022/04/06 10:57:13;;;;;;;0.43;0.40;;;16.30;95.50;;;;;;5110959;27;20972;-85
2022/04/06 10:59:42;;;;;;;0.67;0.50;;;16.50;95.30;;;;;;5108735;27;20669;-83
2022/04/06 11:02:24;;;;;;;1.07;0.80;;;16.70;94.90;;;;;;5108887;27;20960;-83
2022/04/06 11:04:52;;;;;;;1.33;0.83;;;17.00;93.60;;;;;;5105695;27;20722;-83
2022/04/06 11:10:06;;;;;;;0.40;0.40;;;17.40;94.10;;;;;;5112752;27;20627;-83
2022/04/06 11:10:12;;;;;;;0.40;0.40;;;17.80;93.90;;;;;;5097460;27;20664;-84
2022/04/06 11:12:58;;;;;;;0.60;0.50;;;18.20;92.90;;;;;;5103106;27;20640;-84
2022/04/06 11:15:37;;;;;;;1.00;0.80;;;18.60;91.90;;;;;;5104960;27;20678;-84
2022/04/06 11:18:19;;;;;;;1.17;0.60;;;18.90;91.70;;;;;;5108868;27;20670;-84
2022/04/06 11:20:46;;;;;;;1.17;0.60;;;19.20;91.20;;;;;;5105987;27;20682;-84
2022/04/06 11:23:17;;;;;;;0.50;0.50;;;19.70;91.30;;;;;;5107162;27;21054;-84
2022/04/06 11:25:48;;;;;;;0.50;0.50;;;20.00;90.30;;;;;;5104814;27;20619;-84
2022/04/06 11:28:15;;;;;;;0.90;0.80;;;20.10;88.30;;;;;;5107187;27;20647;-84
2022/04/06 11:30:45;;;;;;;0.77;0.73;;;20.40;88.10;;;;;;5112976;27;20986;-84
2022/04/06 11:33:11;;;;;;;0.63;0.60;;;20.60;86.70;;;;;;5107371;27;20637;-84
2022/04/06 11:35:40;;;;;;;0.70;0.53;;;20.60;87.10;;;;;;5111443;27;20624;-84
2022/04/06 11:38:08;;;;;;;2.10;0.80;;;20.50;85.10;;;;;;5106805;27;21001;-85
2022/04/06 11:40:37;;;;;;;0.50;0.50;;;20.30;85.30;;;;;;5108475;27;20663;-84
2022/04/06 11:43:05;;;;;;;1.00;0.67;;;20.50;85.20;;;;;;5102083;28;20974;-84
2022/04/06 11:45:34;;;;;;;0.60;0.60;;;20.40;85.20;;;;;;5100641;27;20627;-84
2022/04/06 11:48:03;;;;;;;0.70;0.70;;;20.40;85.10;;;;;;5112622;27;20623;-84
2022/04/06 11:50:32;;;;;;;0.60;0.60;;;20.30;85.30;;;;;;5107690;27;20630;-84
2022/04/06 11:53:01;;;;;;;2.03;0.80;;;20.40;83.80;;;;;;5102158;28;20623;-83
2022/04/06 11:55:43;;;;;;;0.63;0.60;;;20.20;85.00;;;;;;5108220;27;20630;-84
2022/04/06 11:58:09;;;;;;;0.50;0.50;;;19.90;84.20;;;;;;5112224;27;20633;-83
2022/04/06 12:00:36;;;;;;;1.17;0.70;;;19.60;83.80;;;;;;5104213;27;20655;-84
2022/04/06 12:03:04;;;;;;;1.23;0.70;;;19.50;85.20;;;;;;5112098;27;20622;-84
2022/04/06 12:05:33;;;;;;;0.80;0.80;;;19.60;84.70;;;;;;5104790;27;21001;-84
2022/04/06 12:08:08;;;;;;;0.70;0.47;;;19.60;83.80;;;;;;5110274;27;21550;-84
2022/04/06 12:10:35;;;;;;;0.50;0.50;;;19.80;83.00;;;;;;5106549;27;20619;-84
2022/04/06 12:13:02;;;;;;;1.73;0.67;;;20.00;82.90;;;;;;5106197;27;20626;-84
2022/04/06 12:15:29;;;;;;;0.83;0.40;;;20.20;81.40;;;;;;5106879;27;20663;-84
2022/04/06 12:17:56;;;;;;;0.80;0.50;;;20.10;80.90;;;;;;5112664;27;20630;-84
2022/04/06 12:20:27;;;;;;;1.23;0.70;;;20.20;81.20;;;;;;5104000;27;20671;-84
2022/04/06 12:23:05;;;;;;;0.90;0.57;;;20.30;81.60;;;;;;5111281;27;20630;-83
2022/04/06 12:25:33;;;;;;;0.40;0.33;;;20.40;81.30;;;;;;5109092;27;20635;-84
2022/04/06 12:28:13;;;;;;;0.63;0.40;;;20.50;80.30;;;;;;5111371;27;21458;-84
2022/04/06 12:30:54;;;;;;;0.77;0.50;;;20.70;81.50;;;;;;5109956;27;20633;-84
2022/04/06 12:33:38;;;;;;;0.80;0.70;;;20.80;80.90;;;;;;5101859;27;20608;-84
2022/04/06 12:36:07;;;;;;;0.63;0.53;;;20.70;80.50;;;;;;5108319;27;20633;-84
2022/04/06 12:38:34;;;;;;;0.60;0.50;;;20.90;79.10;;;;;;5108633;27;21021;-83
2022/04/06 12:41:08;;;;;;;0.50;0.33;;;21.10;77.50;;;;;;5103409;27;21314;-83
2022/04/06 12:43:40;;;;;;;0.77;0.40;;;21.20;76.90;;;;;;5101402;27;20615;-83
2022/04/06 12:46:06;;;;;;;1.80;0.60;;;21.50;76.80;;;;;;5107298;27;20623;-84
2022/04/06 12:48:33;;;;;;;0.70;0.40;;;21.80;76.50;;;;;;5106891;27;21426;-84
2022/04/06 12:51:21;;;;;;;0.70;0.60;;;22.10;74.80;;;;;;5102523;27;20993;-85
2022/04/06 12:53:48;;;;;;;0.80;0.50;;;22.40;74.20;;;;;;5109061;27;20615;-85
2022/04/06 12:56:21;;;;;;;1.07;0.63;;;22.80;74.70;;;;;;5109471;27;20634;-85
2022/04/06 12:59:03;;;;;;;5.80;0.50;;;22.90;73.50;;;;;;5104981;27;20665;-85
2022/04/06 13:01:30;;;;;;;0.80;0.50;;;23.30;72.00;;;;;;5112826;27;20725;-85